createdAt,value
2023-03-15T00:00:08.910Z,1.48
2023-03-15T00:02:35.696Z,1.38
2023-03-15T00:05:02.880Z,1.36
2023-03-15T00:07:29.746Z,1.30
2023-03-15T00:09:56.328Z,1.32
2023-03-15T00:12:23.153Z,1.32
2023-03-15T00:14:52.036Z,1.34
2023-03-15T00:17:18.410Z,1.29
2023-03-15T00:19:44.959Z,1.35
2023-03-15T00:22:12.037Z,1.35
2023-03-15T00:24:38.418Z,1.31
2023-03-15T00:27:05.143Z,1.34
2023-03-15T00:29:32.631Z,1.32
2023-03-15T00:32:00.454Z,1.26
2023-03-15T00:34:26.846Z,1.26
2023-03-15T00:36:53.394Z,1.21
2023-03-15T00:39:20.774Z,1.24
2023-03-15T00:41:47.637Z,1.24
2023-03-15T00:44:14.310Z,1.28
2023-03-15T00:46:43.244Z,1.32
2023-03-15T00:49:10.222Z,1.37
2023-03-15T00:51:36.784Z,1.41
2023-03-15T00:54:03.424Z,1.35
2023-03-15T00:56:30.318Z,1.29
2023-03-15T00:58:58.609Z,1.32
2023-03-15T01:01:28.898Z,1.32
2023-03-15T01:03:55.776Z,1.31
2023-03-15T01:06:25.405Z,1.35
2023-03-15T01:08:52.478Z,1.32
2023-03-15T01:11:23.077Z,1.19
2023-03-15T01:13:53.386Z,1.17
2023-03-15T01:16:20.837Z,1.12
2023-03-15T01:18:47.561Z,1.12
2023-03-15T01:21:15.923Z,1.13
2023-03-15T01:23:42.461Z,1.17
2023-03-15T01:26:12.310Z,1.22
2023-03-15T01:28:38.845Z,1.32
2023-03-15T01:31:05.608Z,1.32
2023-03-15T01:33:32.233Z,1.27
2023-03-15T01:36:04.802Z,1.27
2023-03-15T01:38:31.880Z,1.37
2023-03-15T01:40:58.416Z,1.36
2023-03-15T01:43:26.969Z,1.37
2023-03-15T01:45:59.699Z,1.33
2023-03-15T01:48:39.719Z,1.30
2023-03-15T01:51:11.706Z,1.36
2023-03-15T01:53:42.582Z,1.36
2023-03-15T01:56:09.626Z,1.45
2023-03-15T01:58:38.414Z,1.48
2023-03-15T02:01:05.216Z,1.42
2023-03-15T02:03:38.638Z,1.47
2023-03-15T02:06:09.311Z,1.47
2023-03-15T02:08:42.374Z,1.51
2023-03-15T02:11:08.827Z,1.55
2023-03-15T02:13:36.111Z,1.59
2023-03-15T02:16:04.005Z,1.67
2023-03-15T02:18:30.770Z,1.70
2023-03-15T02:21:16.403Z,1.69
2023-03-15T02:23:44.420Z,1.70
2023-03-15T02:26:55.166Z,1.73
2023-03-15T02:29:25.768Z,1.74
2023-03-15T02:31:53.632Z,1.74
2023-03-15T02:34:19.969Z,1.64
2023-03-15T02:36:46.299Z,1.56
2023-03-15T02:39:21.489Z,1.56
2023-03-15T02:41:58.836Z,1.44
2023-03-15T02:44:34.771Z,1.37
2023-03-15T02:47:13.687Z,1.28
2023-03-15T02:49:45.131Z,1.24
2023-03-15T02:52:12.239Z,1.20
2023-03-15T02:54:38.652Z,1.12
2023-03-15T02:57:05.354Z,1.01
2023-03-15T02:59:31.842Z,1.03
2023-03-15T03:01:58.264Z,0.98
2023-03-15T03:04:25.001Z,0.99
2023-03-15T03:06:51.620Z,0.99
2023-03-15T03:09:18.030Z,0.96
2023-03-15T03:11:44.561Z,0.90
2023-03-15T03:14:11.318Z,0.92
2023-03-15T03:16:39.139Z,0.95
2023-03-15T03:19:05.551Z,0.96
2023-03-15T03:21:32.166Z,1.01
2023-03-15T03:23:58.625Z,0.96
2023-03-15T03:26:25.041Z,0.92
2023-03-15T03:28:51.468Z,0.88
2023-03-15T03:31:20.550Z,0.91
2023-03-15T03:33:47.295Z,0.86
2023-03-15T03:36:14.155Z,0.87
2023-03-15T03:38:42.723Z,0.82
2023-03-15T03:41:13.300Z,0.83
2023-03-15T03:43:40.236Z,0.75
2023-03-15T03:46:07.047Z,0.73
2023-03-15T03:48:34.474Z,0.59
2023-03-15T03:51:01.213Z,0.54
2023-03-15T03:53:27.968Z,0.47
2023-03-15T03:55:54.343Z,0.41
2023-03-15T03:58:21.715Z,0.36
2023-03-15T04:00:49.169Z,0.41
2023-03-15T04:03:15.820Z,0.34
2023-03-15T04:05:42.232Z,0.30
2023-03-15T04:08:08.928Z,0.26
2023-03-15T04:10:35.401Z,0.28
2023-03-15T04:13:02.654Z,0.26
2023-03-15T04:15:29.390Z,0.29
2023-03-15T04:17:55.938Z,0.31
2023-03-15T04:20:23.855Z,0.23
2023-03-15T04:22:51.945Z,0.21
2023-03-15T04:25:21.796Z,0.23
2023-03-15T04:27:49.373Z,0.17
2023-03-15T04:30:16.280Z,0.18
2023-03-15T04:32:42.841Z,0.18
2023-03-15T04:35:09.483Z,0.19
2023-03-15T04:37:37.467Z,0.15
2023-03-15T04:40:04.304Z,0.03
2023-03-15T04:42:30.707Z,-0.04
2023-03-15T04:44:57.106Z,-0.07
2023-03-15T04:47:23.497Z,-0.15
2023-03-15T04:49:50.016Z,-0.22
2023-03-15T04:52:16.414Z,-0.25
2023-03-15T04:54:42.841Z,-0.31
2023-03-15T04:57:09.533Z,-0.37
2023-03-15T04:59:36.282Z,-0.39
2023-03-15T05:02:03.944Z,-0.36
2023-03-15T05:04:32.752Z,-0.44
2023-03-15T05:06:59.570Z,-0.46
2023-03-15T05:09:26.243Z,-0.49
2023-03-15T05:11:53.992Z,-0.50
2023-03-15T05:14:20.400Z,-0.55
2023-03-15T05:16:47.141Z,-0.50
2023-03-15T05:19:13.658Z,-0.58
2023-03-15T05:21:40.816Z,-0.57
2023-03-15T05:24:07.280Z,-0.63
2023-03-15T05:26:34.027Z,-0.66
2023-03-15T05:29:00.357Z,-0.67
2023-03-15T05:31:27.058Z,-0.58
2023-03-15T05:33:53.700Z,-0.55
2023-03-15T05:36:20.240Z,-0.56
2023-03-15T05:38:46.640Z,-0.58
2023-03-15T05:41:13.102Z,-0.59
2023-03-15T05:43:39.614Z,-0.61
2023-03-15T05:46:06.032Z,-0.61
2023-03-15T05:48:32.488Z,-0.57
2023-03-15T05:50:58.889Z,-0.54
2023-03-15T05:53:25.373Z,-0.53
2023-03-15T05:55:52.072Z,-0.61
2023-03-15T05:58:19.013Z,-0.63
2023-03-15T06:00:45.438Z,-0.64
2023-03-15T06:03:11.861Z,-0.62
2023-03-15T06:05:38.264Z,-0.65
2023-03-15T06:08:04.930Z,-0.59
2023-03-15T06:10:31.707Z,-0.60
2023-03-15T06:12:58.754Z,-0.60
2023-03-15T06:15:26.073Z,-0.68
2023-03-15T06:17:53.003Z,-0.70
2023-03-15T06:20:19.650Z,-0.63
2023-03-15T06:22:46.054Z,-0.52
2023-03-15T06:25:12.715Z,-0.47
2023-03-15T06:27:39.472Z,-0.36
2023-03-15T06:30:09.237Z,-0.31
2023-03-15T06:32:36.471Z,-0.16
2023-03-15T06:35:05.025Z,-0.07
2023-03-15T06:37:35.310Z,-0.13
2023-03-15T06:40:06.627Z,0.03
2023-03-15T06:42:33.649Z,0.12
2023-03-15T06:45:00.416Z,0.19
2023-03-15T06:47:27.237Z,0.31
2023-03-15T06:49:55.382Z,0.33
2023-03-15T06:52:25.140Z,0.41
2023-03-15T06:54:52.190Z,0.53
2023-03-15T06:57:18.990Z,0.57
2023-03-15T06:59:45.409Z,0.63
2023-03-15T07:02:19.067Z,0.72
2023-03-15T07:04:45.838Z,0.71
2023-03-15T07:07:13.969Z,1.01
2023-03-15T07:09:41.097Z,1.37
2023-03-15T07:12:09.797Z,1.63
2023-03-15T07:14:36.877Z,1.69
2023-03-15T07:17:03.570Z,1.75
2023-03-15T07:19:30.108Z,2.08
2023-03-15T07:21:56.820Z,1.90
2023-03-15T07:24:23.694Z,1.82
2023-03-15T07:26:53.227Z,2.12
2023-03-15T07:29:19.711Z,2.19
2023-03-15T07:31:46.245Z,2.52
2023-03-15T07:34:12.879Z,2.68
2023-03-15T07:36:43.587Z,2.93
2023-03-15T07:39:14.831Z,2.77
2023-03-15T07:41:41.630Z,2.81
2023-03-15T07:44:08.322Z,3.06
2023-03-15T07:46:34.831Z,3.08
2023-03-15T07:49:02.751Z,2.88
2023-03-15T07:51:32.243Z,2.98
2023-03-15T07:53:58.862Z,3.03
2023-03-15T07:56:26.298Z,2.92
2023-03-15T07:58:54.180Z,3.36
2023-03-15T08:01:20.713Z,3.29
2023-03-15T08:03:47.688Z,3.41
2023-03-15T08:06:14.067Z,3.56
2023-03-15T08:08:42.068Z,3.55
2023-03-15T08:11:08.542Z,3.65
2023-03-15T08:13:35.253Z,3.72
2023-03-15T08:16:02.145Z,3.96
2023-03-15T08:18:28.757Z,3.88
2023-03-15T08:20:55.557Z,3.92
2023-03-15T08:23:22.278Z,4.28
2023-03-15T08:25:50.448Z,4.74
2023-03-15T08:28:17.202Z,4.67
2023-03-15T08:30:44.014Z,4.43
2023-03-15T08:33:10.511Z,4.35
2023-03-15T08:35:37.155Z,4.56
2023-03-15T08:38:04.289Z,5.04
2023-03-15T08:40:31.794Z,4.87
2023-03-15T08:42:59.940Z,5.33
2023-03-15T08:45:27.316Z,5.42
2023-03-15T08:48:02.854Z,5.34
2023-03-15T08:50:29.695Z,5.32
2023-03-15T08:52:56.235Z,5.61
2023-03-15T08:55:23.000Z,5.38
2023-03-15T08:57:49.609Z,5.53
2023-03-15T09:00:17.885Z,5.86
2023-03-15T09:02:44.438Z,6.45
2023-03-15T09:05:10.967Z,6.19
2023-03-15T09:07:41.336Z,6.08
2023-03-15T09:10:10.074Z,6.50
2023-03-15T09:12:36.730Z,7.04
2023-03-15T09:15:03.241Z,6.35
2023-03-15T09:17:29.827Z,6.18
2023-03-15T09:19:56.597Z,6.42
2023-03-15T09:22:38.467Z,6.58
2023-03-15T09:25:06.153Z,6.68
2023-03-15T09:27:33.599Z,6.29
2023-03-15T09:30:00.208Z,5.97
2023-03-15T09:32:26.848Z,6.18
2023-03-15T09:34:53.572Z,6.21
2023-03-15T09:37:20.516Z,6.18
2023-03-15T09:39:47.240Z,6.44
2023-03-15T09:42:22.566Z,6.63
2023-03-15T09:44:56.005Z,6.71
2023-03-15T09:47:47.031Z,6.47
2023-03-15T09:50:22.493Z,6.15
2023-03-15T09:52:53.545Z,5.88
2023-03-15T09:55:27.270Z,5.43
2023-03-15T09:57:56.696Z,5.83
2023-03-15T10:00:39.532Z,6.20
2023-03-15T10:03:09.424Z,5.94
2023-03-15T10:05:46.438Z,6.01
2023-03-15T10:08:16.715Z,5.70
2023-03-15T10:10:57.081Z,5.79
2023-03-15T10:14:03.333Z,5.79
2023-03-15T10:16:39.905Z,6.08
2023-03-15T10:19:44.106Z,5.98
2023-03-15T10:22:13.911Z,6.12
2023-03-15T10:25:11.274Z,6.06
2023-03-15T10:27:43.647Z,5.98
2023-03-15T10:30:19.816Z,5.94
2023-03-15T10:32:58.555Z,5.81
2023-03-15T10:35:25.881Z,5.91
2023-03-15T10:37:52.337Z,5.76
2023-03-15T10:40:41.073Z,6.07
2023-03-15T10:43:17.684Z,6.20
2023-03-15T10:45:47.879Z,6.18
2023-03-15T10:48:20.234Z,6.15
2023-03-15T10:50:50.803Z,6.29
2023-03-15T10:53:20.860Z,6.25
2023-03-15T10:55:48.385Z,6.45
2023-03-15T10:58:25.889Z,6.38
2023-03-15T11:01:04.702Z,6.70
2023-03-15T11:03:31.726Z,6.85
2023-03-15T11:05:59.800Z,7.02
2023-03-15T11:08:39.987Z,7.22
2023-03-15T11:11:07.565Z,7.25
2023-03-15T11:13:36.810Z,7.50
2023-03-15T11:16:29.214Z,7.33
2023-03-15T11:18:59.913Z,7.61
2023-03-15T11:21:31.280Z,7.55
2023-03-15T11:23:59.041Z,7.50
2023-03-15T11:26:32.671Z,7.37
2023-03-15T11:29:05.954Z,7.09
2023-03-15T11:31:33.621Z,6.69
2023-03-15T11:34:09.137Z,6.63
2023-03-15T11:36:41.530Z,6.65
2023-03-15T11:39:13.614Z,6.17
2023-03-15T11:41:47.652Z,6.22
2023-03-15T11:44:39.208Z,6.30
2023-03-15T11:47:09.358Z,6.29
2023-03-15T11:49:57.401Z,6.13
2023-03-15T11:52:27.101Z,6.10
2023-03-15T11:54:58.338Z,6.10
2023-03-15T11:57:43.093Z,5.94
2023-03-15T12:00:49.001Z,5.89
2023-03-15T12:03:31.593Z,5.99
2023-03-15T12:06:23.444Z,6.05
2023-03-15T12:08:54.612Z,6.21
2023-03-15T12:11:20.951Z,6.31
2023-03-15T12:14:03.417Z,6.29
2023-03-15T12:16:33.383Z,6.20
2023-03-15T12:19:10.923Z,6.14
2023-03-15T12:21:44.627Z,6.02
2023-03-15T12:24:30.561Z,6.03
2023-03-15T12:27:22.493Z,5.86
2023-03-15T12:29:58.603Z,5.71
2023-03-15T12:32:25.842Z,5.62
2023-03-15T12:34:54.838Z,5.60
2023-03-15T12:37:32.201Z,5.73
2023-03-15T12:40:17.509Z,6.03
2023-03-15T12:42:43.948Z,6.27
2023-03-15T12:45:16.684Z,6.42
2023-03-15T12:47:49.968Z,6.47
2023-03-15T12:50:44.228Z,6.65
2023-03-15T12:53:27.170Z,6.60
2023-03-15T12:56:06.234Z,6.52
2023-03-15T12:58:39.044Z,6.08
2023-03-15T13:01:07.557Z,6.16
2023-03-15T13:03:36.047Z,6.38
2023-03-15T13:06:19.139Z,6.34
2023-03-15T13:08:57.220Z,6.29
2023-03-15T13:11:43.650Z,6.34
2023-03-15T13:14:33.837Z,6.25
2023-03-15T13:17:34.846Z,6.22
2023-03-15T13:20:36.903Z,6.23
2023-03-15T13:23:21.834Z,6.19
2023-03-15T13:26:17.289Z,5.69
2023-03-15T13:28:49.574Z,5.19
2023-03-15T13:31:23.399Z,4.83
2023-03-15T13:33:52.564Z,4.91
2023-03-15T13:36:19.562Z,4.61
2023-03-15T13:38:50.540Z,4.84
2023-03-15T13:41:22.007Z,4.95
2023-03-15T13:43:52.139Z,4.91
2023-03-15T13:46:20.790Z,4.93
2023-03-15T13:48:49.429Z,4.91
2023-03-15T13:51:46.600Z,4.82
2023-03-15T13:54:28.829Z,4.92
2023-03-15T13:56:57.066Z,4.59
2023-03-15T13:59:28.367Z,4.50
2023-03-15T14:01:56.889Z,4.65
2023-03-15T14:04:24.911Z,4.64
2023-03-15T14:07:02.945Z,4.70
2023-03-15T14:09:30.817Z,4.94
2023-03-15T14:12:07.398Z,4.99
2023-03-15T14:14:46.788Z,4.80
2023-03-15T14:17:25.963Z,4.75
2023-03-15T14:20:04.524Z,4.62
2023-03-15T14:22:31.120Z,4.63
2023-03-15T14:24:59.910Z,4.78
2023-03-15T14:27:27.759Z,4.79
2023-03-15T14:30:00.099Z,4.99
2023-03-15T14:32:35.196Z,5.11
2023-03-15T14:35:19.709Z,5.24
2023-03-15T14:37:49.088Z,5.91
2023-03-15T14:40:20.078Z,6.51
2023-03-15T14:42:47.986Z,6.51
2023-03-15T14:45:15.730Z,6.14
2023-03-15T14:47:56.693Z,6.18
2023-03-15T14:50:29.483Z,6.05
2023-03-15T14:52:57.324Z,5.97
2023-03-15T14:55:28.668Z,5.84
2023-03-15T14:57:55.403Z,5.81
2023-03-15T15:00:22.557Z,6.20
2023-03-15T15:02:52.660Z,6.39
2023-03-15T15:05:27.947Z,6.48
2023-03-15T15:08:12.672Z,6.15
2023-03-15T15:10:41.075Z,6.16
2023-03-15T15:13:14.692Z,5.99
2023-03-15T15:15:54.712Z,5.89
2023-03-15T15:18:27.530Z,5.88
2023-03-15T15:20:55.369Z,5.59
2023-03-15T15:23:29.047Z,5.60
2023-03-15T15:26:06.753Z,5.19
2023-03-15T15:28:36.880Z,4.94
2023-03-15T15:31:06.046Z,4.34
2023-03-15T15:33:32.593Z,4.21
2023-03-15T15:35:59.355Z,4.07
2023-03-15T15:38:31.690Z,3.86
2023-03-15T15:40:58.356Z,3.91
2023-03-15T15:43:25.550Z,3.77
2023-03-15T15:45:52.318Z,3.70
2023-03-15T15:48:18.988Z,3.52
2023-03-15T15:50:45.498Z,3.18
2023-03-15T15:53:16.986Z,3.04
2023-03-15T15:55:44.338Z,2.98
2023-03-15T15:58:12.593Z,2.83
2023-03-15T16:00:40.252Z,3.01
2023-03-15T16:03:13.254Z,2.96
2023-03-15T16:05:39.750Z,2.95
2023-03-15T16:08:07.101Z,2.94
2023-03-15T16:10:33.592Z,2.88
2023-03-15T16:12:59.990Z,2.94
2023-03-15T16:15:26.468Z,2.97
2023-03-15T16:17:53.049Z,3.07
2023-03-15T16:20:22.585Z,3.18
2023-03-15T16:22:52.786Z,3.07
2023-03-15T16:25:28.222Z,3.22
2023-03-15T16:27:56.784Z,3.19
2023-03-15T16:30:29.432Z,3.21
2023-03-15T16:32:56.857Z,3.26
2023-03-15T16:35:32.840Z,3.32
2023-03-15T16:38:05.550Z,3.34
2023-03-15T16:40:34.675Z,3.36
2023-03-15T16:43:01.375Z,3.39
2023-03-15T16:45:28.092Z,3.41
2023-03-15T16:47:54.605Z,3.42
2023-03-15T16:50:21.264Z,3.38
2023-03-15T16:52:52.436Z,3.31
2023-03-15T16:55:24.428Z,3.20
2023-03-15T16:57:52.274Z,3.19
2023-03-15T17:00:19.314Z,3.17
2023-03-15T17:02:50.673Z,3.06
2023-03-15T17:05:17.302Z,3.02
2023-03-15T17:07:44.103Z,3.10
2023-03-15T17:10:19.893Z,2.95
2023-03-15T17:12:46.642Z,2.99
2023-03-15T17:15:13.360Z,2.98
2023-03-15T17:17:39.991Z,3.05
2023-03-15T17:20:08.414Z,3.06
2023-03-15T17:22:34.862Z,3.09
2023-03-15T17:25:01.377Z,3.06
2023-03-15T17:27:38.128Z,3.01
2023-03-15T17:30:26.244Z,3.04
2023-03-15T17:32:53.187Z,2.99
2023-03-15T17:35:27.593Z,2.91
2023-03-15T17:37:54.519Z,2.86
2023-03-15T17:40:31.605Z,2.87
2023-03-15T17:43:00.950Z,2.84
2023-03-15T17:45:33.364Z,2.79
2023-03-15T17:48:03.136Z,2.70
2023-03-15T17:50:32.521Z,2.69
2023-03-15T17:53:05.379Z,2.63
2023-03-15T17:55:32.789Z,2.60
2023-03-15T17:58:02.552Z,2.50
2023-03-15T18:00:29.516Z,2.40
2023-03-15T18:02:56.758Z,2.37
2023-03-15T18:05:26.288Z,2.28
2023-03-15T18:08:00.620Z,2.15
2023-03-15T18:10:33.684Z,2.14
2023-03-15T18:13:00.082Z,2.10
2023-03-15T18:15:26.608Z,2.01
2023-03-15T18:17:53.140Z,1.97
2023-03-15T18:20:20.346Z,2.07
2023-03-15T18:22:46.988Z,1.94
2023-03-15T18:25:26.010Z,1.84
2023-03-15T18:27:53.307Z,1.77
2023-03-15T18:30:24.963Z,1.87
2023-03-15T18:32:52.684Z,1.77
2023-03-15T18:35:25.044Z,1.71
2023-03-15T18:37:51.965Z,1.70
2023-03-15T18:40:20.044Z,1.65
2023-03-15T18:42:47.048Z,1.60
2023-03-15T18:45:20.911Z,1.60
2023-03-15T18:47:48.214Z,1.65
2023-03-15T18:50:16.112Z,1.63
2023-03-15T18:52:45.817Z,1.61
2023-03-15T18:55:16.049Z,1.56
2023-03-15T18:57:43.039Z,1.50
2023-03-15T19:00:12.310Z,1.46
2023-03-15T19:02:44.381Z,1.46
2023-03-15T19:05:14.844Z,1.43
2023-03-15T19:07:42.143Z,1.37
2023-03-15T19:10:11.638Z,1.35
2023-03-15T19:12:38.288Z,1.31
2023-03-15T19:15:05.429Z,1.37
2023-03-15T19:17:31.851Z,1.31
2023-03-15T19:19:58.664Z,1.26
2023-03-15T19:22:26.363Z,1.20
2023-03-15T19:24:52.879Z,1.18
2023-03-15T19:27:19.347Z,1.14
2023-03-15T19:29:45.759Z,1.19
2023-03-15T19:32:12.181Z,1.17
2023-03-15T19:34:40.328Z,1.10
2023-03-15T19:37:08.116Z,1.07
2023-03-15T19:39:35.747Z,1.07
2023-03-15T19:42:02.101Z,1.07
2023-03-15T19:44:28.468Z,1.00
2023-03-15T19:46:54.895Z,0.94
2023-03-15T19:49:21.654Z,0.91
2023-03-15T19:51:47.989Z,0.94
2023-03-15T19:54:14.588Z,0.86
2023-03-15T19:56:41.387Z,0.84
2023-03-15T19:59:08.601Z,0.78
2023-03-15T20:01:35.004Z,0.73
2023-03-15T20:04:01.617Z,0.67
2023-03-15T20:06:28.497Z,0.65
2023-03-15T20:08:55.066Z,0.66
2023-03-15T20:11:21.481Z,0.63
2023-03-15T20:13:48.257Z,0.54
2023-03-15T20:16:14.802Z,0.53
2023-03-15T20:18:41.251Z,0.43
2023-03-15T20:21:07.658Z,0.37
2023-03-15T20:23:34.009Z,0.35
2023-03-15T20:26:10.749Z,0.29
2023-03-15T20:28:40.945Z,0.25
2023-03-15T20:31:15.676Z,0.21
2023-03-15T20:33:43.549Z,0.15
2023-03-15T20:36:10.105Z,0.14
2023-03-15T20:38:37.339Z,0.09
2023-03-15T20:41:04.821Z,0.06
2023-03-15T20:43:31.208Z,0.02
2023-03-15T20:45:57.947Z,0.04
2023-03-15T20:48:24.454Z,0.08
2023-03-15T20:50:50.904Z,0.00
2023-03-15T20:53:20.393Z,-0.04
2023-03-15T20:55:46.822Z,-0.06
2023-03-15T20:58:13.474Z,-0.09
2023-03-15T21:00:41.224Z,-0.22
2023-03-15T21:03:11.706Z,-0.25
2023-03-15T21:05:38.131Z,-0.27
2023-03-15T21:08:04.543Z,-0.28
2023-03-15T21:10:31.134Z,-0.31
2023-03-15T21:12:57.463Z,-0.29
2023-03-15T21:15:23.828Z,-0.32
2023-03-15T21:17:50.467Z,-0.33
2023-03-15T21:20:17.878Z,-0.33
2023-03-15T21:22:44.354Z,-0.33
2023-03-15T21:25:11.366Z,-0.34
2023-03-15T21:27:37.738Z,-0.35
2023-03-15T21:30:04.635Z,-0.35
2023-03-15T21:32:33.468Z,-0.40
2023-03-15T21:34:59.940Z,-0.34
2023-03-15T21:37:26.266Z,-0.43
2023-03-15T21:39:52.828Z,-0.46
2023-03-15T21:42:19.813Z,-0.47
2023-03-15T21:44:49.003Z,-0.50
2023-03-15T21:47:15.812Z,-0.47
2023-03-15T21:49:42.359Z,-0.59
2023-03-15T21:52:08.705Z,-0.65
2023-03-15T21:54:35.528Z,-0.73
2023-03-15T21:57:01.914Z,-0.74
2023-03-15T21:59:28.402Z,-0.77
2023-03-15T22:01:55.932Z,-0.87
2023-03-15T22:04:23.960Z,-0.89
2023-03-15T22:06:51.022Z,-0.87
2023-03-15T22:09:17.584Z,-0.89
2023-03-15T22:11:43.869Z,-0.88
2023-03-15T22:14:15.580Z,-0.87
2023-03-15T22:16:42.005Z,-0.82
2023-03-15T22:19:08.669Z,-0.87
2023-03-15T22:21:35.291Z,-0.84
2023-03-15T22:24:01.920Z,-0.90
2023-03-15T22:26:28.278Z,-0.93
2023-03-15T22:28:54.641Z,-1.01
2023-03-15T22:31:21.073Z,-1.07
2023-03-15T22:33:47.821Z,-1.07
2023-03-15T22:36:14.142Z,-1.02
2023-03-15T22:38:40.572Z,-1.03
2023-03-15T22:41:10.003Z,-1.07
2023-03-15T22:43:37.866Z,-1.12
2023-03-15T22:46:04.427Z,-1.13
2023-03-15T22:48:30.995Z,-1.14
2023-03-15T22:51:01.232Z,-1.05
2023-03-15T22:53:28.829Z,-1.05
2023-03-15T22:55:55.254Z,-1.10
2023-03-15T22:58:21.869Z,-1.14
2023-03-15T23:00:48.484Z,-1.15
2023-03-15T23:03:14.926Z,-1.20
2023-03-15T23:05:41.283Z,-1.23
2023-03-15T23:08:07.672Z,-1.13
2023-03-15T23:10:34.818Z,-1.10
2023-03-15T23:13:01.627Z,-1.20
2023-03-15T23:15:28.840Z,-1.26
2023-03-15T23:17:56.091Z,-1.25
2023-03-15T23:20:25.413Z,-1.30
2023-03-15T23:22:52.042Z,-1.33
2023-03-15T23:25:20.677Z,-1.42
2023-03-15T23:27:47.663Z,-1.44
2023-03-15T23:30:15.183Z,-1.50
2023-03-15T23:32:42.150Z,-1.46
2023-03-15T23:35:42.573Z,-1.48
2023-03-15T23:38:08.968Z,-1.51
2023-03-15T23:40:35.435Z,-1.50
2023-03-15T23:43:04.374Z,-1.53
2023-03-15T23:45:30.726Z,-1.48
2023-03-15T23:47:58.007Z,-1.54
2023-03-15T23:50:25.644Z,-1.54
2023-03-15T23:52:53.871Z,-1.53
2023-03-15T23:55:21.138Z,-1.52
2023-03-15T23:57:48.321Z,-1.51
